createdAt,value
2022-08-03T00:01:50.547Z,2.20
2022-08-03T00:04:17.737Z,2.33
2022-08-03T00:06:44.438Z,2.10
2022-08-03T00:09:11.988Z,2.25
2022-08-03T00:11:38.791Z,2.38
2022-08-03T00:14:06.267Z,2.13
2022-08-03T00:16:33.466Z,2.17
2022-08-03T00:19:01.026Z,2.17
2022-08-03T00:21:28.918Z,2.15
2022-08-03T00:23:56.205Z,2.78
2022-08-03T00:26:23.273Z,2.20
2022-08-03T00:28:50.658Z,2.33
2022-08-03T00:31:22.257Z,1.97
2022-08-03T00:34:04.729Z,2.67
2022-08-03T00:36:32.952Z,2.85
2022-08-03T00:38:59.788Z,2.42
2022-08-03T00:41:26.842Z,2.17
2022-08-03T00:43:53.581Z,2.37
2022-08-03T00:46:22.249Z,2.10
2022-08-03T00:48:50.604Z,2.25
2022-08-03T00:51:18.572Z,2.65
2022-08-03T00:53:45.954Z,2.20
2022-08-03T00:56:16.581Z,2.20
2022-08-03T00:58:45.711Z,2.45
2022-08-03T01:01:12.769Z,2.55
2022-08-03T01:03:40.438Z,2.65
2022-08-03T01:06:07.213Z,2.22
2022-08-03T01:09:02.840Z,2.20
2022-08-03T01:12:15.638Z,2.28
2022-08-03T01:15:00.343Z,2.00
2022-08-03T01:17:43.913Z,2.50
2022-08-03T01:20:17.492Z,2.38
2022-08-03T01:23:10.750Z,1.80
2022-08-03T01:26:12.516Z,2.05
2022-08-03T01:28:57.523Z,2.50
2022-08-03T01:31:29.921Z,2.30
2022-08-03T01:34:02.641Z,1.95
2022-08-03T01:36:38.045Z,2.80
2022-08-03T01:39:11.416Z,2.33
2022-08-03T01:42:01.054Z,3.33
2022-08-03T01:44:31.321Z,2.72
2022-08-03T01:47:00.610Z,2.53
2022-08-03T01:49:29.007Z,2.83
2022-08-03T01:52:04.019Z,3.03
2022-08-03T01:54:45.427Z,2.63
2022-08-03T01:57:15.060Z,2.60
2022-08-03T01:59:43.059Z,2.28
2022-08-03T02:02:28.554Z,2.87
2022-08-03T02:05:02.874Z,2.67
2022-08-03T02:07:32.130Z,2.80
2022-08-03T02:09:59.525Z,2.53
2022-08-03T02:12:31.363Z,2.08
2022-08-03T02:15:00.094Z,2.13
2022-08-03T02:17:39.949Z,2.50
2022-08-03T02:20:09.936Z,2.55
2022-08-03T02:22:40.450Z,1.95
2022-08-03T02:25:12.178Z,2.92
2022-08-03T02:28:01.780Z,2.77
2022-08-03T02:30:37.467Z,2.10
2022-08-03T02:33:05.664Z,2.67
2022-08-03T02:35:33.453Z,2.70
2022-08-03T02:38:03.956Z,2.50
2022-08-03T02:40:33.032Z,2.90
2022-08-03T02:43:05.449Z,2.42
2022-08-03T02:45:35.919Z,2.65
2022-08-03T02:48:04.897Z,2.95
2022-08-03T02:50:33.992Z,2.38
2022-08-03T02:53:02.439Z,2.37
2022-08-03T02:55:30.467Z,2.58
2022-08-03T02:58:01.688Z,3.08
2022-08-03T03:00:34.813Z,2.63
2022-08-03T03:03:06.279Z,2.10
2022-08-03T03:05:53.222Z,2.40
2022-08-03T03:08:26.870Z,2.50
2022-08-03T03:10:59.359Z,2.45
2022-08-03T03:13:29.087Z,2.20
2022-08-03T03:15:59.591Z,2.42
2022-08-03T03:18:29.072Z,2.40
2022-08-03T03:20:56.720Z,2.92
2022-08-03T03:23:25.276Z,2.13
2022-08-03T03:25:53.000Z,2.17
2022-08-03T03:28:20.759Z,2.40
2022-08-03T03:30:52.897Z,2.50
2022-08-03T03:33:21.414Z,2.40
2022-08-03T03:35:48.793Z,2.20
2022-08-03T03:38:15.501Z,2.58
2022-08-03T03:40:42.647Z,2.75
2022-08-03T03:43:11.311Z,2.37
2022-08-03T03:45:40.456Z,2.38
2022-08-03T03:48:08.078Z,2.47
2022-08-03T03:50:36.196Z,2.75
2022-08-03T03:53:04.297Z,2.42
2022-08-03T03:55:31.444Z,2.60
2022-08-03T03:57:58.380Z,2.60
2022-08-03T04:00:25.014Z,2.35
2022-08-03T04:02:52.399Z,2.25
2022-08-03T04:05:37.728Z,2.58
2022-08-03T04:08:31.232Z,2.33
2022-08-03T04:11:30.216Z,2.97
2022-08-03T04:14:19.225Z,2.58
2022-08-03T04:17:03.960Z,2.45
2022-08-03T04:19:36.856Z,2.80
2022-08-03T04:22:14.003Z,2.10
2022-08-03T04:24:46.540Z,2.30
2022-08-03T04:27:16.818Z,2.30
2022-08-03T04:29:48.518Z,2.72
2022-08-03T04:32:17.277Z,2.83
2022-08-03T04:34:44.458Z,2.50
2022-08-03T04:37:14.876Z,2.97
2022-08-03T04:39:44.290Z,2.83
2022-08-03T04:42:13.679Z,2.50
2022-08-03T04:44:42.843Z,2.78
2022-08-03T04:47:09.804Z,2.40
2022-08-03T04:49:37.858Z,3.47
2022-08-03T04:52:07.472Z,2.97
2022-08-03T04:54:50.258Z,2.60
2022-08-03T04:57:23.007Z,2.72
2022-08-03T05:00:02.699Z,2.40
2022-08-03T05:02:31.722Z,2.67
2022-08-03T05:04:59.304Z,2.53
2022-08-03T05:07:26.140Z,2.80
2022-08-03T05:10:15.000Z,2.88
2022-08-03T05:12:43.971Z,2.57
2022-08-03T05:15:11.206Z,2.58
2022-08-03T05:17:37.763Z,3.30
2022-08-03T05:20:05.145Z,3.67
2022-08-03T05:22:32.385Z,3.42
2022-08-03T05:24:59.095Z,3.00
2022-08-03T05:27:26.488Z,2.97
2022-08-03T05:29:53.521Z,3.05
2022-08-03T05:32:20.444Z,2.67
2022-08-03T05:34:47.256Z,2.85
2022-08-03T05:37:14.377Z,2.67
2022-08-03T05:39:40.940Z,2.75
2022-08-03T05:42:07.982Z,3.47
2022-08-03T05:44:38.740Z,2.63
2022-08-03T05:47:05.928Z,3.13
2022-08-03T05:49:32.814Z,3.47
2022-08-03T05:52:14.181Z,3.65
2022-08-03T05:54:55.476Z,3.40
2022-08-03T05:57:26.252Z,3.00
2022-08-03T05:59:57.905Z,3.17
2022-08-03T06:02:25.755Z,2.80
2022-08-03T06:04:52.606Z,2.90
2022-08-03T06:07:19.396Z,3.25
2022-08-03T06:10:35.600Z,3.25
2022-08-03T06:12:36.240Z,3.70
2022-08-03T06:15:07.801Z,3.23
2022-08-03T06:17:48.849Z,3.55
2022-08-03T06:20:20.344Z,2.97
2022-08-03T06:22:50.765Z,3.63
2022-08-03T06:25:21.384Z,3.50
2022-08-03T06:27:48.117Z,3.37
2022-08-03T06:30:19.271Z,3.60
2022-08-03T06:32:52.181Z,3.70
2022-08-03T06:35:19.953Z,3.60
2022-08-03T06:37:49.378Z,3.55
2022-08-03T06:40:24.536Z,3.70
2022-08-03T06:42:51.553Z,3.55
2022-08-03T06:45:18.692Z,3.33
2022-08-03T06:47:45.263Z,3.35
2022-08-03T06:50:17.834Z,4.00
2022-08-03T06:52:45.347Z,4.00
2022-08-03T06:55:12.032Z,3.50
2022-08-03T06:57:38.953Z,4.03
2022-08-03T07:00:11.905Z,3.63
2022-08-03T07:02:40.116Z,3.03
2022-08-03T07:05:08.496Z,4.00
2022-08-03T07:07:35.527Z,3.50
2022-08-03T07:10:02.604Z,3.80
2022-08-03T07:12:30.297Z,3.90
2022-08-03T07:15:01.238Z,3.67
2022-08-03T07:17:32.012Z,3.23
2022-08-03T07:20:00.373Z,3.85
2022-08-03T07:22:27.200Z,3.83
2022-08-03T07:24:54.425Z,3.78
2022-08-03T07:27:21.365Z,3.17
2022-08-03T07:29:48.472Z,2.90
2022-08-03T07:32:15.673Z,3.53
2022-08-03T07:34:42.488Z,3.30
2022-08-03T07:37:09.250Z,2.80
2022-08-03T07:39:36.767Z,3.72
2022-08-03T07:42:03.609Z,3.10
2022-08-03T07:44:30.202Z,4.13
2022-08-03T07:46:57.854Z,3.22
2022-08-03T07:49:24.941Z,3.78
2022-08-03T07:52:11.650Z,3.30
2022-08-03T07:54:38.438Z,3.10
2022-08-03T07:57:05.031Z,3.45
2022-08-03T07:59:56.706Z,3.42
2022-08-03T08:02:19.156Z,3.28
2022-08-03T08:04:46.046Z,3.80
2022-08-03T08:07:12.665Z,3.33
2022-08-03T08:09:39.797Z,3.75
2022-08-03T08:12:15.724Z,4.10
2022-08-03T08:14:45.717Z,4.28
2022-08-03T08:17:13.128Z,3.50
2022-08-03T08:19:51.215Z,4.30
2022-08-03T08:22:19.854Z,3.85
2022-08-03T08:24:56.405Z,4.10
2022-08-03T08:27:24.044Z,3.97
2022-08-03T08:29:55.183Z,4.20
2022-08-03T08:32:23.544Z,3.67
2022-08-03T08:34:51.405Z,3.75
2022-08-03T08:37:18.073Z,4.03
2022-08-03T08:39:44.677Z,4.13
2022-08-03T08:42:12.052Z,4.38
2022-08-03T08:44:39.286Z,3.87
2022-08-03T08:47:08.113Z,4.15
2022-08-03T08:49:38.425Z,3.92
2022-08-03T08:52:24.930Z,3.97
2022-08-03T08:55:04.145Z,3.95
2022-08-03T08:57:47.546Z,3.63
2022-08-03T09:00:15.448Z,4.72
2022-08-03T09:02:43.342Z,4.57
2022-08-03T09:05:12.954Z,4.40
2022-08-03T09:07:44.336Z,5.00
2022-08-03T09:10:13.720Z,5.23
2022-08-03T09:12:46.601Z,5.80
2022-08-03T09:15:25.167Z,4.97
2022-08-03T09:17:55.012Z,5.93
2022-08-03T09:20:23.626Z,5.82
2022-08-03T09:22:57.763Z,5.93
2022-08-03T09:25:40.274Z,4.80
2022-08-03T09:29:01.719Z,4.60
2022-08-03T09:31:04.960Z,5.38
2022-08-03T09:33:34.784Z,5.00
2022-08-03T09:36:03.088Z,4.60
2022-08-03T09:38:30.183Z,4.40
2022-08-03T09:41:00.209Z,4.20
2022-08-03T09:43:27.907Z,4.63
2022-08-03T09:46:07.707Z,4.88
2022-08-03T09:48:35.489Z,4.60
2022-08-03T09:51:13.535Z,5.35
2022-08-03T09:53:58.646Z,5.65
2022-08-03T09:56:40.665Z,5.03
2022-08-03T09:59:07.567Z,5.30
2022-08-03T10:01:35.910Z,4.67
2022-08-03T10:04:04.930Z,4.22
2022-08-03T10:06:32.497Z,4.60
2022-08-03T10:09:11.377Z,6.97
2022-08-03T10:11:42.142Z,6.15
2022-08-03T10:14:19.147Z,4.97
2022-08-03T10:16:47.335Z,4.13
2022-08-03T10:19:15.697Z,4.30
2022-08-03T10:21:51.726Z,3.50
2022-08-03T10:24:25.154Z,3.75
2022-08-03T10:26:52.745Z,3.13
2022-08-03T10:29:24.969Z,3.70
2022-08-03T10:31:58.252Z,3.58
2022-08-03T10:34:28.961Z,3.55
2022-08-03T10:36:58.920Z,3.15
2022-08-03T10:39:29.467Z,3.03
2022-08-03T10:41:58.744Z,3.00
2022-08-03T10:44:34.029Z,3.03
2022-08-03T10:47:01.306Z,3.17
2022-08-03T10:49:34.322Z,3.10
2022-08-03T10:52:12.772Z,3.83
2022-08-03T10:55:07.782Z,3.85
2022-08-03T10:57:58.345Z,3.33
2022-08-03T11:00:28.411Z,2.78
2022-08-03T11:03:08.942Z,4.07
2022-08-03T11:05:48.207Z,3.63
2022-08-03T11:08:23.931Z,3.58
2022-08-03T11:10:53.138Z,3.97
2022-08-03T11:13:22.814Z,4.32
2022-08-03T11:15:52.783Z,3.50
2022-08-03T11:18:27.574Z,4.17
2022-08-03T11:20:56.606Z,3.58
2022-08-03T11:24:04.599Z,3.40
2022-08-03T11:26:30.511Z,3.00
2022-08-03T11:29:29.908Z,3.60
2022-08-03T11:31:57.743Z,3.50
2022-08-03T11:34:24.938Z,3.05
2022-08-03T11:37:21.971Z,3.70
2022-08-03T11:39:52.947Z,3.05
2022-08-03T11:42:23.406Z,3.78
2022-08-03T11:44:51.312Z,3.83
2022-08-03T11:47:18.577Z,3.15
2022-08-03T11:49:49.819Z,3.10
2022-08-03T11:52:17.768Z,3.42
2022-08-03T11:54:44.516Z,3.58
2022-08-03T11:57:11.535Z,3.53
2022-08-03T11:59:38.746Z,3.55
2022-08-03T12:02:09.274Z,2.80
2022-08-03T12:04:58.512Z,3.50
2022-08-03T12:08:05.028Z,3.50
2022-08-03T12:10:15.342Z,3.70
2022-08-03T12:12:46.307Z,3.53
2022-08-03T12:15:13.679Z,3.20
2022-08-03T12:17:41.855Z,3.50
2022-08-03T12:20:10.432Z,3.65
2022-08-03T12:22:39.709Z,3.10
2022-08-03T12:25:09.967Z,3.30
2022-08-03T12:27:37.085Z,3.08
2022-08-03T12:30:04.735Z,3.08
2022-08-03T12:32:31.702Z,3.00
2022-08-03T12:35:01.281Z,2.40
2022-08-03T12:37:28.817Z,3.28
2022-08-03T12:40:01.625Z,3.35
2022-08-03T12:42:35.447Z,3.90
2022-08-03T12:45:25.780Z,2.92
2022-08-03T12:48:01.840Z,3.47
2022-08-03T12:50:34.592Z,3.33
2022-08-03T12:53:10.087Z,3.00
2022-08-03T12:56:02.354Z,3.15
2022-08-03T12:58:33.928Z,3.63
2022-08-03T13:01:05.045Z,3.90
2022-08-03T13:03:50.196Z,3.38
2022-08-03T13:06:26.843Z,3.10
2022-08-03T13:09:05.458Z,3.05
2022-08-03T13:11:57.736Z,3.03
2022-08-03T13:14:20.579Z,2.53
2022-08-03T13:16:48.806Z,3.00
2022-08-03T13:19:16.193Z,3.20
2022-08-03T13:21:53.654Z,3.05
2022-08-03T13:24:31.476Z,2.78
2022-08-03T13:27:22.048Z,2.23
2022-08-03T13:29:49.774Z,3.08
2022-08-03T13:32:16.775Z,2.88
2022-08-03T13:34:43.328Z,3.05
2022-08-03T13:37:12.399Z,2.85
2022-08-03T13:39:57.297Z,2.30
2022-08-03T13:42:26.154Z,2.45
2022-08-03T13:44:53.027Z,3.10
2022-08-03T13:47:20.341Z,3.33
2022-08-03T13:50:00.174Z,3.13
2022-08-03T13:52:33.478Z,2.50
2022-08-03T13:55:00.826Z,2.60
2022-08-03T13:58:06.190Z,2.38
2022-08-03T14:00:27.434Z,2.67
2022-08-03T14:03:13.842Z,2.88
2022-08-03T14:05:43.061Z,2.77
2022-08-03T14:08:10.383Z,2.33
2022-08-03T14:10:40.225Z,3.22
2022-08-03T14:13:07.802Z,2.63
2022-08-03T14:15:37.912Z,2.90
2022-08-03T14:18:12.631Z,2.70
2022-08-03T14:20:48.951Z,2.50
2022-08-03T14:23:18.854Z,2.53
2022-08-03T14:25:52.100Z,2.40
2022-08-03T14:28:21.155Z,2.65
2022-08-03T14:30:48.568Z,2.40
2022-08-03T14:33:15.352Z,3.00
2022-08-03T14:35:42.425Z,2.88
2022-08-03T14:38:09.301Z,2.20
2022-08-03T14:40:35.951Z,2.25
2022-08-03T14:43:02.744Z,2.73
2022-08-03T14:45:29.469Z,2.25
2022-08-03T14:50:32.309Z,2.50
2022-08-03T14:50:48.363Z,2.25
2022-08-03T14:53:17.633Z,2.22
2022-08-03T14:55:50.460Z,2.50
2022-08-03T14:58:21.455Z,2.58
2022-08-03T15:00:49.986Z,2.42
2022-08-03T15:03:20.080Z,2.00
2022-08-03T15:05:46.787Z,2.42
2022-08-03T15:08:14.720Z,2.70
2022-08-03T15:10:44.238Z,2.45
2022-08-03T15:13:14.885Z,2.22
2022-08-03T15:15:41.856Z,2.22
2022-08-03T15:18:08.859Z,2.50
2022-08-03T15:20:51.067Z,2.50
2022-08-03T15:23:18.561Z,2.33
2022-08-03T15:26:29.609Z,2.45
2022-08-03T15:28:33.952Z,2.13
2022-08-03T15:31:01.479Z,2.05
2022-08-03T15:33:30.387Z,2.10
2022-08-03T15:36:00.312Z,2.80
2022-08-03T15:38:27.232Z,1.92
2022-08-03T15:40:56.954Z,2.17
2022-08-03T15:43:25.031Z,2.55
2022-08-03T15:46:18.988Z,2.27
2022-08-03T15:48:39.846Z,2.03
2022-08-03T15:51:07.407Z,1.92
2022-08-03T15:53:34.435Z,1.88
2022-08-03T15:56:05.239Z,2.28
2022-08-03T15:59:03.349Z,2.27
2022-08-03T16:01:25.445Z,1.92
2022-08-03T16:03:52.307Z,2.20
2022-08-03T16:06:18.849Z,1.85
2022-08-03T16:08:56.983Z,1.83
2022-08-03T16:11:23.502Z,1.67
2022-08-03T16:14:13.727Z,1.80
2022-08-03T16:16:40.528Z,1.90
2022-08-03T16:19:07.140Z,2.05
2022-08-03T16:21:47.942Z,1.98
2022-08-03T16:24:17.562Z,1.73
2022-08-03T16:26:46.776Z,1.90
2022-08-03T16:29:23.011Z,1.75
2022-08-03T16:31:52.309Z,2.08
2022-08-03T16:34:20.256Z,2.00
2022-08-03T16:36:46.936Z,1.87
2022-08-03T16:39:13.898Z,1.83
2022-08-03T16:41:54.189Z,1.80
2022-08-03T16:44:29.629Z,1.75
2022-08-03T16:46:56.449Z,1.90
2022-08-03T16:49:54.265Z,1.97
2022-08-03T16:52:10.078Z,2.00
2022-08-03T16:54:39.964Z,2.05
2022-08-03T16:57:07.479Z,2.10
2022-08-03T16:59:36.718Z,1.92
2022-08-03T17:02:10.243Z,2.23
2022-08-03T17:04:40.030Z,1.63
2022-08-03T17:07:08.942Z,2.10
2022-08-03T17:09:38.193Z,1.90
2022-08-03T17:12:07.690Z,2.10
2022-08-03T17:14:41.183Z,1.90
2022-08-03T17:17:24.306Z,1.77
2022-08-03T17:19:54.167Z,2.10
2022-08-03T17:22:28.139Z,1.92
2022-08-03T17:24:57.521Z,1.92
2022-08-03T17:28:51.173Z,1.73
2022-08-03T17:30:19.051Z,2.15
2022-08-03T17:32:56.731Z,2.00
2022-08-03T17:35:34.456Z,1.80
2022-08-03T17:38:10.504Z,3.03
2022-08-03T17:40:39.222Z,2.13
2022-08-03T17:44:08.129Z,1.98
2022-08-03T17:46:07.077Z,2.03
2022-08-03T17:48:41.391Z,2.20
2022-08-03T17:51:23.433Z,2.90
2022-08-03T17:54:18.368Z,1.67
2022-08-03T17:56:59.626Z,1.88
2022-08-03T18:00:30.019Z,1.90
2022-08-03T18:03:21.585Z,1.63
2022-08-03T18:06:11.058Z,2.10
2022-08-03T18:08:51.418Z,2.17
2022-08-03T18:11:24.156Z,1.75
2022-08-03T18:14:16.470Z,2.15
2022-08-03T18:16:58.045Z,2.35
2022-08-03T18:20:02.766Z,1.92
2022-08-03T18:22:22.111Z,1.90
2022-08-03T18:24:52.577Z,2.42
2022-08-03T18:27:21.428Z,2.33
2022-08-03T18:29:52.828Z,1.88
2022-08-03T18:32:22.853Z,2.10
2022-08-03T18:34:57.420Z,2.33
2022-08-03T18:37:25.843Z,1.85
2022-08-03T18:39:57.917Z,2.00
2022-08-03T18:42:26.602Z,1.70
2022-08-03T18:48:15.484Z,2.07
2022-08-03T18:51:07.450Z,2.40
2022-08-03T18:54:02.364Z,2.10
2022-08-03T18:56:51.403Z,2.60
2022-08-03T18:59:30.471Z,1.98
2022-08-03T19:02:05.371Z,2.00
2022-08-03T19:04:47.967Z,2.30
2022-08-03T19:07:23.441Z,2.70
2022-08-03T19:09:55.713Z,2.10
2022-08-03T19:12:45.628Z,2.30
2022-08-03T19:15:15.753Z,2.00
2022-08-03T19:17:53.256Z,2.50
2022-08-03T19:20:26.443Z,2.28
2022-08-03T19:22:57.980Z,2.13
2022-08-03T19:25:34.499Z,2.35
2022-08-03T19:28:06.348Z,1.90
2022-08-03T19:30:40.335Z,2.33
2022-08-03T19:33:12.569Z,2.50
2022-08-03T19:35:54.467Z,2.00
2022-08-03T19:38:28.941Z,2.75
2022-08-03T19:40:59.627Z,2.67
2022-08-03T19:43:49.520Z,2.45
2022-08-03T19:46:22.478Z,2.80
2022-08-03T19:49:10.703Z,2.63
2022-08-03T19:52:02.453Z,2.75
2022-08-03T19:54:53.735Z,2.83
2022-08-03T19:57:27.525Z,2.30
2022-08-03T19:59:56.471Z,2.58
2022-08-03T20:02:27.025Z,2.58
2022-08-03T20:05:00.028Z,3.03
2022-08-03T20:07:28.959Z,3.00
2022-08-03T20:10:01.310Z,2.90
2022-08-03T20:12:37.115Z,3.00
2022-08-03T20:15:06.720Z,2.65
2022-08-03T20:17:56.521Z,3.15
2022-08-03T20:20:32.818Z,2.63
2022-08-03T20:23:06.932Z,2.88
2022-08-03T20:25:56.973Z,3.88
2022-08-03T20:28:50.403Z,3.10
2022-08-03T20:31:21.617Z,3.28
2022-08-03T20:33:50.536Z,3.13
2022-08-03T20:36:18.402Z,3.17
2022-08-03T20:38:48.039Z,2.40
2022-08-03T20:41:16.210Z,2.80
2022-08-03T20:43:43.952Z,2.35
2022-08-03T20:46:30.032Z,2.10
2022-08-03T20:49:11.608Z,2.50
2022-08-03T20:51:50.351Z,3.08
2022-08-03T20:57:10.458Z,2.10
2022-08-03T20:59:50.407Z,2.90
2022-08-03T21:02:29.454Z,2.00
2022-08-03T21:04:57.748Z,2.25
2022-08-03T21:08:04.354Z,1.73
2022-08-03T21:10:15.362Z,1.65
2022-08-03T21:12:53.414Z,1.80
2022-08-03T21:13:05.681Z,2.35
2022-08-03T21:13:07.724Z,2.03
2022-08-03T21:16:02.492Z,1.50
2022-08-03T21:18:27.842Z,1.52
2022-08-03T21:20:59.924Z,1.60
2022-08-03T21:23:37.083Z,2.00
2022-08-03T21:26:15.341Z,1.93
2022-08-03T21:28:42.555Z,1.85
2022-08-03T21:31:10.436Z,1.92
2022-08-03T21:33:37.282Z,1.85
2022-08-03T21:36:04.572Z,1.85
2022-08-03T21:38:32.370Z,1.90
2022-08-03T21:41:00.522Z,1.95
2022-08-03T21:43:27.585Z,2.03
2022-08-03T21:45:59.544Z,2.20
2022-08-03T21:48:27.959Z,2.40
2022-08-03T21:50:54.728Z,1.73
2022-08-03T21:53:24.121Z,1.83
2022-08-03T21:55:58.503Z,1.95
2022-08-03T21:58:32.993Z,2.40
2022-08-03T22:01:03.010Z,2.60
2022-08-03T22:03:30.291Z,1.83
2022-08-03T22:06:20.012Z,2.22
2022-08-03T22:08:47.890Z,2.33
2022-08-03T22:11:14.686Z,2.10
2022-08-03T22:13:43.175Z,1.90
2022-08-03T22:16:11.542Z,1.97
2022-08-03T22:18:39.414Z,2.10
2022-08-03T22:21:07.560Z,2.20
2022-08-03T22:23:40.520Z,1.98
2022-08-03T22:26:12.082Z,1.90
2022-08-03T22:28:39.617Z,2.10
2022-08-03T22:31:30.622Z,1.90
2022-08-03T22:33:55.053Z,2.50
2022-08-03T22:36:24.336Z,2.72
2022-08-03T22:38:52.627Z,2.35
2022-08-03T22:41:20.109Z,2.03
2022-08-03T22:43:46.930Z,2.40
2022-08-03T22:46:18.739Z,2.25
2022-08-03T22:48:47.300Z,1.90
2022-08-03T22:51:15.325Z,2.17
2022-08-03T22:53:42.169Z,2.10
2022-08-03T22:56:09.178Z,1.80
2022-08-03T22:58:35.792Z,2.10
2022-08-03T23:01:07.115Z,2.10
2022-08-03T23:04:00.204Z,2.22
2022-08-03T23:06:31.894Z,2.30
2022-08-03T23:08:59.641Z,2.55
2022-08-03T23:11:28.173Z,2.00
2022-08-03T23:13:57.581Z,2.30
2022-08-03T23:16:29.392Z,2.70
2022-08-03T23:18:58.920Z,2.13
2022-08-03T23:21:53.621Z,2.20
2022-08-03T23:24:28.491Z,2.10
2022-08-03T23:26:58.407Z,2.22
2022-08-03T23:29:28.703Z,2.20
2022-08-03T23:31:56.419Z,1.90
2022-08-03T23:34:42.685Z,1.95
2022-08-03T23:37:09.476Z,2.00
2022-08-03T23:39:38.089Z,2.28
2022-08-03T23:42:06.289Z,2.40
2022-08-03T23:44:34.707Z,2.67
2022-08-03T23:47:01.827Z,2.42
2022-08-03T23:49:28.755Z,2.63
2022-08-03T23:52:18.028Z,2.60
2022-08-03T23:55:15.368Z,2.42
2022-08-03T23:58:10.931Z,2.17
